Time;durP1;ratioP1;P1;durP2;ratioP2;P2;SDS_P1;SDS_P2;PMS_P1;PMS_P2;Temp;Humidity;BMP_temperature;BMP_pressure;BME280_temperature;BME280_humidity;BME280_pressure;Samples;Min_cycle;Max_cycle;Signal;HPM_P1;HPM_P2
2022/07/02 00:02:21;;;;;;;3.70;1.20;;;27.60;99.90;;;;;;5035748;28;20196;-96
2022/07/02 00:05:09;;;;;;;1.53;1.20;;;27.50;99.90;;;;;;5036391;28;20197;-96
2022/07/02 00:07:41;;;;;;;2.30;1.30;;;27.90;99.90;;;;;;5017523;28;20212;-96
2022/07/02 00:10:15;;;;;;;4.50;1.47;;;27.60;99.90;;;;;;5014426;28;20238;-96
2022/07/02 00:12:48;;;;;;;4.57;1.70;;;27.60;99.90;;;;;;5001830;28;20226;-96
2022/07/02 00:15:33;;;;;;;2.93;1.47;;;27.60;99.90;;;;;;5001630;28;20233;-96
2022/07/02 00:18:07;;;;;;;1.30;1.20;;;27.60;99.90;;;;;;4983336;28;20261;-96
2022/07/02 00:20:41;;;;;;;2.50;1.53;;;27.50;99.90;;;;;;5002284;28;20214;-96
2022/07/02 00:23:13;;;;;;;2.03;1.37;;;27.40;99.90;;;;;;5000578;28;20629;-96
2022/07/02 00:25:48;;;;;;;2.13;1.40;;;27.60;99.90;;;;;;4999350;28;20230;-96
2022/07/02 00:28:23;;;;;;;2.00;1.47;;;27.70;99.90;;;;;;5006203;28;20630;-96
2022/07/02 00:31:09;;;;;;;3.13;1.33;;;27.70;99.90;;;;;;5017972;28;20728;-96
2022/07/02 00:36:28;;;;;;;1.30;1.20;;;27.50;99.90;;;;;;5022260;28;20291;-96
2022/07/02 00:39:01;;;;;;;2.13;1.30;;;27.40;99.90;;;;;;5022565;28;20328;-96
2022/07/02 00:41:38;;;;;;;1.50;1.40;;;27.40;99.90;;;;;;5021287;28;20232;-96
2022/07/02 00:44:15;;;;;;;1.50;1.27;;;27.50;99.90;;;;;;5026721;28;20260;-96
2022/07/02 00:46:58;;;;;;;2.47;1.50;;;27.50;99.90;;;;;;5025301;28;20235;-96
2022/07/02 00:49:41;;;;;;;3.13;1.43;;;26.90;99.90;;;;;;5028043;28;20228;-96
2022/07/02 00:52:13;;;;;;;2.70;1.40;;;26.90;99.90;;;;;;5027344;28;20213;-96
2022/07/02 00:54:51;;;;;;;1.70;1.60;;;27.20;99.90;;;;;;5027238;28;20237;-96
2022/07/02 00:57:26;;;;;;;3.80;1.33;;;28.00;99.90;;;;;;5026761;28;20209;-96
2022/07/02 01:00:10;;;;;;;3.20;1.40;;;27.70;99.90;;;;;;5021027;28;20209;-96
2022/07/02 01:02:47;;;;;;;1.53;1.43;;;28.50;99.90;;;;;;5021850;28;20213;-96
2022/07/02 01:05:32;;;;;;;2.03;1.40;;;28.50;99.90;;;;;;5020096;28;20262;-96
2022/07/02 01:11:05;;;;;;;1.77;1.33;;;29.30;99.90;;;;;;5023716;28;20228;-96
2022/07/02 01:13:41;;;;;;;3.10;1.80;;;29.70;99.90;;;;;;5021124;28;20236;-96
2022/07/02 01:16:16;;;;;;;1.77;1.30;;;29.20;99.90;;;;;;5021372;28;20635;-96
2022/07/02 01:18:53;;;;;;;2.03;1.63;;;28.70;99.90;;;;;;5023978;28;20216;-96
2022/07/02 01:21:25;;;;;;;2.23;1.77;;;28.80;99.90;;;;;;5019729;28;20622;-96
2022/07/02 01:24:00;;;;;;;2.47;1.73;;;29.60;99.90;;;;;;5021247;28;20666;-96
2022/07/02 01:26:32;;;;;;;1.27;1.20;;;29.80;99.90;;;;;;5021925;28;20205;-96
2022/07/02 01:29:04;;;;;;;1.80;1.60;;;29.70;99.90;;;;;;5022483;28;20201;-96
2022/07/02 01:31:35;;;;;;;1.80;1.40;;;29.50;99.90;;;;;;5033941;28;20212;-96
2022/07/02 01:34:07;;;;;;;3.00;1.98;;;29.50;99.90;;;;;;5030243;28;20229;-96
2022/07/02 01:36:39;;;;;;;4.90;1.90;;;29.50;99.90;;;;;;5008881;28;20217;-96
2022/07/02 01:39:14;;;;;;;2.63;2.13;;;29.20;99.90;;;;;;5024823;28;20276;-96
2022/07/02 01:41:46;;;;;;;3.47;1.95;;;29.50;99.90;;;;;;5020034;28;20239;-96
2022/07/02 01:44:19;;;;;;;2.92;1.90;;;29.80;99.90;;;;;;5019564;28;20206;-96
2022/07/02 01:47:00;;;;;;;3.53;1.90;;;30.00;99.90;;;;;;5020439;28;20214;-96
2022/07/02 01:49:32;;;;;;;3.38;1.80;;;29.70;99.90;;;;;;5021171;28;20228;-96
2022/07/02 01:52:08;;;;;;;3.80;2.15;;;29.10;99.90;;;;;;5020014;28;20213;-96
2022/07/02 01:54:46;;;;;;;2.80;2.10;;;28.50;99.90;;;;;;5020559;28;20269;-96
2022/07/02 01:57:19;;;;;;;3.67;3.10;;;28.10;99.90;;;;;;5020829;28;20283;-96
2022/07/02 01:59:51;;;;;;;3.47;3.13;;;27.60;99.90;;;;;;5019890;28;20217;-96
2022/07/02 02:02:24;;;;;;;2.20;1.73;;;28.20;99.90;;;;;;5002690;28;20297;-96
2022/07/02 02:04:56;;;;;;;3.33;1.73;;;29.00;99.90;;;;;;5019849;28;20260;-96
2022/07/02 02:10:17;;;;;;;2.73;1.73;;;29.40;99.90;;;;;;5020945;28;20236;-96
2022/07/02 02:12:51;;;;;;;3.33;1.83;;;29.50;99.90;;;;;;5021668;28;20213;-96
2022/07/02 02:15:39;;;;;;;2.23;1.63;;;29.50;99.90;;;;;;5019963;28;20316;-96
2022/07/02 02:18:11;;;;;;;3.43;1.67;;;29.30;99.90;;;;;;5021961;28;20304;-96
2022/07/02 02:20:44;;;;;;;1.67;1.57;;;28.50;99.90;;;;;;5020068;28;20252;-96
2022/07/02 02:23:17;;;;;;;5.23;2.10;;;28.00;99.90;;;;;;5008659;28;20225;-96
2022/07/02 02:25:51;;;;;;;2.03;1.83;;;28.30;99.90;;;;;;5019775;28;20213;-96
2022/07/02 02:28:24;;;;;;;2.07;1.70;;;28.70;99.90;;;;;;5012671;28;20271;-96
2022/07/02 02:31:01;;;;;;;1.77;1.67;;;28.80;99.90;;;;;;5002686;28;20229;-96
2022/07/02 02:33:35;;;;;;;3.33;1.90;;;28.40;99.90;;;;;;5000346;28;20210;-96
2022/07/02 02:36:08;;;;;;;2.40;1.80;;;27.60;99.90;;;;;;5003580;28;20258;-96
2022/07/02 02:38:40;;;;;;;3.83;1.80;;;26.60;99.90;;;;;;5001795;28;20486;-96
2022/07/02 02:41:28;;;;;;;4.63;1.90;;;26.20;99.90;;;;;;4998813;28;20221;-96
2022/07/02 02:44:03;;;;;;;3.20;2.03;;;25.70;99.90;;;;;;5137293;23;20304;-96
2022/07/02 02:46:35;;;;;;;1.83;1.70;;;25.30;99.90;;;;;;5008094;28;20269;-96
2022/07/02 02:49:10;;;;;;;1.50;1.40;;;24.90;99.90;;;;;;5008444;28;20224;-96
2022/07/02 03:23:05;;;;;;;1.97;1.77;;;21.90;99.90;;;;;;4960634;28;20219;-96
2022/07/02 03:26:09;;;;;;;3.03;1.90;;;21.70;99.90;;;;;;4970308;28;20218;-96
2022/07/02 03:28:53;;;;;;;2.03;1.83;;;21.50;99.90;;;;;;4968549;29;20216;-96
2022/07/02 03:34:40;;;;;;;3.07;1.60;;;21.10;99.90;;;;;;4969744;29;20303;-96
2022/07/02 03:37:28;;;;;;;3.47;1.73;;;20.90;99.90;;;;;;4952346;29;20219;-96
2022/07/02 03:40:01;;;;;;;3.10;1.90;;;20.70;99.90;;;;;;4965658;29;20335;-96
2022/07/02 03:43:20;;;;;;;1.80;1.50;;;20.50;99.90;;;;;;4968215;29;20223;-96
2022/07/02 03:49:33;;;;;;;3.77;1.50;;;20.30;99.90;;;;;;4966712;29;20207;-96
2022/07/02 03:52:14;;;;;;;4.57;1.73;;;20.10;99.90;;;;;;4966927;29;20587;-96
2022/07/02 04:04:09;;;;;;;1.60;1.50;;;19.50;99.90;;;;;;5740670;22;20229;-96
2022/07/02 04:30:40;;;;;;;2.30;1.70;;;18.40;99.90;;;;;;5973015;22;7249256;-96
2022/07/02 04:36:00;;;;;;;1.57;1.40;;;18.30;99.90;;;;;;6280894;22;20182;-96
2022/07/02 04:38:43;;;;;;;2.50;1.80;;;18.20;99.90;;;;;;6280898;22;20171;-96
2022/07/02 04:41:17;;;;;;;2.93;1.50;;;18.10;99.90;;;;;;6266285;23;20640;-96
2022/07/02 04:43:51;;;;;;;2.07;1.53;;;18.00;99.90;;;;;;6266762;23;20387;-96
2022/07/02 04:46:33;;;;;;;1.63;1.50;;;18.00;99.90;;;;;;6265556;23;20175;-96
2022/07/02 04:49:07;;;;;;;2.77;1.60;;;17.90;99.90;;;;;;6266070;23;20485;-96
2022/07/02 04:51:41;;;;;;;1.93;1.33;;;17.90;99.90;;;;;;6264764;23;20198;-96
2022/07/02 04:59:48;;;;;;;3.17;1.80;;;17.60;99.90;;;;;;6265280;23;20277;-96
2022/07/02 05:02:50;;;;;;;3.63;1.77;;;17.60;99.90;;;;;;6267911;23;20182;-96
2022/07/02 05:05:37;;;;;;;3.00;1.67;;;17.60;99.90;;;;;;6275060;23;20197;-96
2022/07/02 05:08:14;;;;;;;2.33;1.50;;;17.40;99.90;;;;;;6272706;23;20195;-96
2022/07/02 05:13:52;;;;;;;2.13;1.90;;;17.40;99.90;;;;;;6269690;23;20191;-95
2022/07/02 05:16:26;;;;;;;2.27;1.87;;;17.40;99.90;;;;;;6280899;22;20170;-96
2022/07/02 05:25:27;;;;;;;2.13;1.80;;;17.10;99.90;;;;;;6273963;22;20178;-96
2022/07/02 05:28:16;;;;;;;3.10;2.00;;;17.10;99.90;;;;;;6271200;22;20204;-96
2022/07/02 05:31:12;;;;;;;3.40;1.90;;;17.00;99.90;;;;;;6272201;22;20185;-96
2022/07/02 05:33:46;;;;;;;2.27;1.80;;;16.90;99.90;;;;;;6272598;22;20176;-96
2022/07/02 05:36:27;;;;;;;3.23;2.10;;;16.80;99.90;;;;;;6258698;23;20188;-96
2022/07/02 05:39:03;;;;;;;3.60;1.90;;;16.80;99.90;;;;;;6261205;23;20175;-96
2022/07/02 05:41:37;;;;;;;4.53;1.90;;;16.70;99.90;;;;;;6259295;22;20508;-96
2022/07/02 05:44:10;;;;;;;4.73;2.43;;;16.60;99.90;;;;;;6259760;23;20586;-96
2022/07/02 05:46:41;;;;;;;4.00;2.10;;;16.50;99.90;;;;;;6260762;22;20245;-96
2022/07/02 05:49:14;;;;;;;3.07;2.10;;;16.50;99.90;;;;;;6257937;23;20242;-96
2022/07/02 05:51:46;;;;;;;1.97;1.70;;;16.40;99.90;;;;;;6258857;23;20175;-96
2022/07/02 05:54:22;;;;;;;3.33;2.23;;;16.30;99.90;;;;;;6260000;22;20182;-96
2022/07/02 05:56:54;;;;;;;4.20;2.30;;;16.20;99.90;;;;;;6255594;23;20175;-96
2022/07/02 05:59:25;;;;;;;3.87;2.33;;;16.20;99.90;;;;;;6257035;23;20183;-96
2022/07/02 06:01:56;;;;;;;2.63;2.00;;;16.20;99.90;;;;;;6256572;23;20180;-96
2022/07/02 06:04:28;;;;;;;3.93;1.90;;;16.20;99.90;;;;;;6254801;22;20179;-96
2022/07/02 06:10:02;;;;;;;4.10;2.17;;;16.10;99.90;;;;;;6255961;22;20210;-96
2022/07/02 06:12:34;;;;;;;5.30;2.33;;;16.00;99.90;;;;;;6253288;23;20626;-96
2022/07/02 06:15:09;;;;;;;4.33;2.30;;;16.00;99.90;;;;;;6253168;23;20254;-96
2022/07/02 06:31:36;;;;;;;4.10;2.43;;;15.60;99.90;;;;;;6194789;23;20192;-96
2022/07/02 06:34:08;;;;;;;5.47;2.60;;;15.60;99.90;;;;;;6191117;23;20283;-96
2022/07/02 06:36:40;;;;;;;3.23;2.40;;;15.50;99.90;;;;;;6189466;23;20526;-96
2022/07/02 06:39:28;;;;;;;3.07;2.17;;;15.50;99.90;;;;;;6189652;23;20193;-96
2022/07/02 06:48:25;;;;;;;3.40;2.77;;;15.40;99.90;;;;;;6202369;23;20173;-96
2022/07/02 06:51:20;;;;;;;6.20;2.70;;;15.40;99.90;;;;;;6200577;23;20199;-96
2022/07/02 06:59:31;;;;;;;5.83;3.10;;;15.20;99.90;;;;;;6214053;23;20177;-96
2022/07/02 07:02:02;;;;;;;5.40;2.63;;;15.20;99.90;;;;;;6241703;23;20251;-96
2022/07/02 07:04:44;;;;;;;4.50;2.93;;;15.20;99.90;;;;;;6254455;23;20183;-96
2022/07/02 07:07:17;;;;;;;5.73;3.13;;;15.10;99.90;;;;;;6253314;23;20179;-96
2022/07/02 07:09:57;;;;;;;4.30;2.50;;;15.00;99.90;;;;;;6269560;22;20225;-96
2022/07/02 07:12:30;;;;;;;5.47;2.87;;;15.00;99.90;;;;;;6259219;22;20172;-96
2022/07/02 07:15:06;;;;;;;3.50;2.50;;;15.00;99.90;;;;;;6255223;23;20175;-96
2022/07/02 07:17:39;;;;;;;6.00;2.93;;;15.00;99.90;;;;;;6253423;23;20229;-96
2022/07/02 07:20:19;;;;;;;3.97;2.73;;;14.90;99.90;;;;;;6254948;22;20159;-96
2022/07/02 07:22:50;;;;;;;3.43;2.97;;;14.90;99.90;;;;;;6255917;22;20171;-96
2022/07/02 07:25:22;;;;;;;4.63;2.93;;;14.90;99.90;;;;;;6258760;23;20164;-95
2022/07/02 07:27:56;;;;;;;4.73;3.10;;;14.80;99.90;;;;;;6259203;23;20172;-96
2022/07/02 07:30:31;;;;;;;5.40;3.07;;;14.80;99.90;;;;;;6226463;23;20195;-95
2022/07/02 07:33:02;;;;;;;4.80;3.20;;;14.80;99.90;;;;;;6254721;22;20552;-96
2022/07/02 07:35:45;;;;;;;4.50;3.00;;;14.80;99.90;;;;;;6254702;23;20245;-96
2022/07/02 07:38:16;;;;;;;4.90;3.00;;;14.70;99.90;;;;;;6253347;23;20179;-95
2022/07/02 07:40:47;;;;;;;7.83;3.43;;;14.70;99.90;;;;;;6255410;23;20172;-96
2022/07/02 07:43:19;;;;;;;5.17;3.00;;;14.70;99.90;;;;;;6250673;23;20180;-96
2022/07/02 07:45:56;;;;;;;5.97;3.40;;;14.60;99.90;;;;;;6250465;23;20621;-96
2022/07/02 07:48:32;;;;;;;4.90;3.53;;;14.60;99.90;;;;;;6263887;23;20176;-96
2022/07/02 07:51:22;;;;;;;4.40;3.43;;;14.50;99.90;;;;;;6254773;23;20234;-96
2022/07/02 07:54:10;;;;;;;5.00;3.53;;;14.50;99.90;;;;;;6262540;23;20180;-96
2022/07/02 07:56:49;;;;;;;5.60;3.60;;;14.50;99.90;;;;;;6260761;23;20186;-96
2022/07/02 07:59:25;;;;;;;5.10;3.57;;;14.40;99.90;;;;;;6263353;23;20187;-96
2022/07/02 08:02:06;;;;;;;6.50;3.13;;;14.30;99.90;;;;;;6225416;23;20179;-96
2022/07/02 08:04:47;;;;;;;6.60;3.60;;;14.30;99.90;;;;;;6224159;23;20180;-96
2022/07/02 08:07:21;;;;;;;7.47;3.30;;;14.30;99.90;;;;;;6249396;23;20183;-96
2022/07/02 08:09:54;;;;;;;5.00;3.53;;;14.30;99.90;;;;;;6250194;23;20195;-96
2022/07/02 08:12:26;;;;;;;5.70;3.20;;;14.20;99.90;;;;;;6250346;23;20233;-96
2022/07/02 08:14:59;;;;;;;7.50;3.90;;;14.10;99.90;;;;;;6252100;23;20676;-96
2022/07/02 08:17:31;;;;;;;8.03;3.50;;;14.20;99.90;;;;;;6253114;23;20180;-96
2022/07/02 08:20:10;;;;;;;7.40;3.90;;;14.10;99.90;;;;;;6255569;23;20175;-95
2022/07/02 08:22:49;;;;;;;5.50;3.50;;;14.10;99.90;;;;;;6254709;23;20179;-95
2022/07/02 08:31:43;;;;;;;6.23;3.57;;;13.90;99.90;;;;;;6213757;23;20226;-96
2022/07/02 08:34:16;;;;;;;6.57;3.83;;;13.90;99.90;;;;;;6250808;23;20183;-96
2022/07/02 08:36:53;;;;;;;7.33;4.03;;;13.90;99.90;;;;;;6250584;23;20237;-96
2022/07/02 08:39:28;;;;;;;7.63;3.83;;;13.90;99.90;;;;;;6252118;23;20192;-96
2022/07/02 08:42:03;;;;;;;9.40;4.43;;;13.90;99.90;;;;;;6249937;23;20183;-96
2022/07/02 08:57:05;;;;;;;6.43;4.07;;;13.80;99.90;;;;;;6264414;23;20176;-96
2022/07/02 09:00:11;;;;;;;7.10;4.13;;;13.90;99.90;;;;;;6266642;23;20628;-96
2022/07/02 09:20:36;;;;;;;8.53;5.27;;;14.10;99.90;;;;;;6262206;23;20151;-96
2022/07/02 09:26:35;;;;;;;10.07;5.50;;;14.20;99.90;;;;;;6258176;23;20436;-96
2022/07/02 09:54:19;;;;;;;11.03;6.33;;;13.80;99.90;;;;;;6270632;22;20143;-96
2022/07/02 09:57:05;;;;;;;10.30;6.23;;;13.90;99.90;;;;;;6273382;22;20194;-96
2022/07/02 09:59:49;;;;;;;8.23;6.07;;;13.90;99.90;;;;;;6273187;22;20191;-96
2022/07/02 10:05:36;;;;;;;9.83;6.33;;;14.00;99.90;;;;;;6273522;22;20163;-96
2022/07/02 10:11:06;;;;;;;8.40;6.27;;;13.90;99.90;;;;;;6273449;22;20263;-96
2022/07/02 10:14:29;;;;;;;9.47;5.70;;;13.90;99.90;;;;;;6273681;22;20239;-96
2022/07/02 10:17:20;;;;;;;10.33;6.43;;;14.00;99.90;;;;;;6274236;22;20152;-96
2022/07/02 10:23:09;;;;;;;10.77;6.70;;;14.00;99.90;;;;;;6258532;23;20229;-96
2022/07/02 10:39:10;;;;;;;10.70;6.97;;;13.80;99.90;;;;;;6319348;22;20239;-96
2022/07/02 10:41:43;;;;;;;11.83;6.70;;;13.90;99.90;;;;;;6303118;22;20193;-96
2022/07/02 10:44:21;;;;;;;9.93;6.63;;;13.90;99.90;;;;;;6335205;22;20158;-96
2022/07/02 10:47:00;;;;;;;11.43;6.40;;;13.80;99.90;;;;;;6325092;22;20174;-96
2022/07/02 10:49:40;;;;;;;10.20;6.13;;;13.80;99.90;;;;;;6318925;22;20188;-96
2022/07/02 10:52:41;;;;;;;9.63;5.93;;;13.80;99.90;;;;;;6321614;22;20182;-96
2022/07/02 10:55:27;;;;;;;10.17;7.00;;;13.90;99.90;;;;;;6321105;22;20170;-96
2022/07/02 10:58:08;;;;;;;10.93;6.47;;;13.90;99.90;;;;;;6316332;22;20208;-96
2022/07/02 11:00:41;;;;;;;10.83;6.53;;;14.00;99.90;;;;;;6313914;22;20628;-96
2022/07/02 11:03:19;;;;;;;11.93;6.70;;;13.90;99.90;;;;;;6314411;22;20181;-96
2022/07/02 11:06:02;;;;;;;14.83;6.80;;;13.80;99.90;;;;;;6315684;22;20176;-96
2022/07/02 11:08:50;;;;;;;12.37;6.20;;;13.80;99.90;;;;;;6318648;22;20607;-96
2022/07/02 11:11:52;;;;;;;10.20;6.57;;;13.80;99.90;;;;;;6316241;22;20198;-96
2022/07/02 11:14:27;;;;;;;12.17;6.77;;;13.80;99.90;;;;;;6315706;22;20178;-96
2022/07/02 11:17:00;;;;;;;8.60;6.10;;;13.80;99.90;;;;;;6315895;22;20174;-96
2022/07/02 11:19:33;;;;;;;13.73;6.50;;;13.80;99.90;;;;;;6317196;22;20174;-95
2022/07/02 11:22:08;;;;;;;10.67;6.67;;;13.90;99.90;;;;;;6320054;22;20169;-96
2022/07/02 11:24:41;;;;;;;15.93;6.40;;;13.80;99.90;;;;;;6319660;22;20162;-96
2022/07/02 11:27:18;;;;;;;9.97;6.50;;;13.70;99.90;;;;;;6315749;22;20240;-95
2022/07/02 11:29:56;;;;;;;9.97;6.30;;;13.80;99.90;;;;;;6314221;22;20177;-96
2022/07/02 11:32:37;;;;;;;10.33;6.90;;;13.80;99.90;;;;;;6314327;22;20205;-96
2022/07/02 11:35:15;;;;;;;10.03;6.97;;;13.80;99.90;;;;;;6316111;22;20173;-96
2022/07/02 11:37:48;;;;;;;10.17;5.80;;;13.70;99.90;;;;;;6314236;22;20173;-96
2022/07/02 11:40:23;;;;;;;9.47;6.27;;;13.80;99.90;;;;;;6315492;22;20190;-96
2022/07/02 11:43:01;;;;;;;10.13;6.83;;;13.80;99.90;;;;;;6314750;22;20219;-96
2022/07/02 11:45:45;;;;;;;13.07;6.73;;;13.70;99.90;;;;;;6315374;22;20615;-96
2022/07/02 11:48:22;;;;;;;9.63;6.40;;;13.60;99.90;;;;;;6314106;22;20182;-96
2022/07/02 11:51:06;;;;;;;9.53;6.47;;;13.60;99.90;;;;;;6313131;22;20198;-96
2022/07/02 11:53:38;;;;;;;11.57;6.57;;;13.60;99.90;;;;;;6314804;22;20201;-96
2022/07/02 11:59:12;;;;;;;11.43;6.90;;;13.60;99.90;;;;;;6312744;22;20174;-96
2022/07/02 12:01:46;;;;;;;12.77;7.00;;;13.60;99.90;;;;;;6311781;22;20170;-96
2022/07/02 12:04:21;;;;;;;9.07;6.00;;;13.60;99.90;;;;;;6314790;22;20277;-96
2022/07/02 12:06:57;;;;;;;7.83;6.10;;;13.50;99.90;;;;;;6312960;22;20169;-96
2022/07/02 12:09:29;;;;;;;7.57;5.90;;;13.60;99.90;;;;;;6312174;22;20230;-96
2022/07/02 12:12:07;;;;;;;9.90;7.03;;;13.60;99.90;;;;;;6313273;22;20198;-96
2022/07/02 12:14:44;;;;;;;10.73;6.57;;;13.50;99.90;;;;;;6312459;22;20190;-96
2022/07/02 12:17:20;;;;;;;9.07;6.13;;;13.50;99.90;;;;;;6311479;22;20174;-96
2022/07/02 12:19:56;;;;;;;9.67;5.93;;;13.50;99.90;;;;;;6312119;22;20551;-96
2022/07/02 12:22:40;;;;;;;10.20;6.60;;;13.60;99.90;;;;;;6311950;22;20174;-96
2022/07/02 12:25:13;;;;;;;10.13;6.07;;;13.60;99.90;;;;;;6312573;22;20174;-96
2022/07/02 12:27:56;;;;;;;11.97;6.47;;;13.60;99.90;;;;;;6314469;22;20170;-96
2022/07/02 12:30:29;;;;;;;8.10;5.37;;;13.60;99.90;;;;;;6312055;22;20173;-96
2022/07/02 12:33:02;;;;;;;10.07;6.47;;;13.60;99.90;;;;;;6314471;22;20214;-96
2022/07/02 12:35:34;;;;;;;8.73;6.43;;;13.70;99.90;;;;;;6318673;22;20613;-96
2022/07/02 12:38:07;;;;;;;10.13;6.73;;;13.60;99.90;;;;;;6316873;22;20179;-96
2022/07/02 12:40:41;;;;;;;9.20;6.20;;;13.60;99.90;;;;;;6325666;22;20181;-96
2022/07/02 12:43:23;;;;;;;10.67;6.70;;;13.60;99.90;;;;;;6328833;22;20174;-96
2022/07/02 12:48:50;;;;;;;10.17;6.20;;;13.60;99.90;;;;;;6313623;22;20170;-96
2022/07/02 12:54:11;;;;;;;9.73;6.67;;;13.70;99.90;;;;;;6320490;22;20184;-96
2022/07/02 12:56:45;;;;;;;9.90;6.67;;;13.70;99.90;;;;;;6315298;22;20174;-96
2022/07/02 12:59:24;;;;;;;9.33;6.67;;;13.70;99.90;;;;;;6315409;22;20173;-96
2022/07/02 13:01:58;;;;;;;10.07;7.10;;;13.80;99.90;;;;;;6313226;22;20174;-96
2022/07/02 13:04:30;;;;;;;9.43;6.50;;;13.80;99.90;;;;;;6313931;22;20174;-96
2022/07/02 13:07:04;;;;;;;9.23;7.17;;;13.70;99.90;;;;;;6315128;22;20224;-96
2022/07/02 13:09:36;;;;;;;13.00;7.00;;;13.70;99.90;;;;;;6314910;22;20178;-96
2022/07/02 13:12:10;;;;;;;9.47;6.67;;;13.70;99.90;;;;;;6312479;22;20253;-96
2022/07/02 13:14:46;;;;;;;12.90;7.13;;;13.70;99.90;;;;;;6313490;22;20171;-95
2022/07/02 13:17:21;;;;;;;15.83;7.93;;;13.80;99.90;;;;;;6313450;22;20174;-96
2022/07/02 13:20:11;;;;;;;11.00;6.60;;;13.80;99.90;;;;;;6313320;22;20226;-96
2022/07/02 13:22:45;;;;;;;8.87;6.27;;;13.80;99.90;;;;;;6313647;22;20174;-96
2022/07/02 13:25:17;;;;;;;9.03;7.47;;;13.80;99.90;;;;;;6314360;22;20158;-96
2022/07/02 13:27:50;;;;;;;10.77;6.87;;;13.80;99.90;;;;;;6313817;22;20181;-96
2022/07/02 13:30:30;;;;;;;8.03;6.67;;;13.90;99.90;;;;;;6312636;22;20174;-96
2022/07/02 13:33:07;;;;;;;7.93;6.37;;;13.90;99.90;;;;;;6319561;22;20640;-96
2022/07/02 13:35:41;;;;;;;10.57;6.63;;;13.90;99.90;;;;;;6314103;22;20182;-96
2022/07/02 13:38:13;;;;;;;10.03;6.87;;;13.90;99.90;;;;;;6314612;22;20181;-96
2022/07/02 13:40:45;;;;;;;10.57;7.60;;;13.90;99.90;;;;;;6312711;22;20187;-96
2022/07/02 13:43:18;;;;;;;11.37;7.00;;;13.90;99.90;;;;;;6313642;22;20881;-96
2022/07/02 13:45:52;;;;;;;10.17;6.03;;;13.80;99.90;;;;;;6329255;22;20182;-96
2022/07/02 13:48:27;;;;;;;11.03;6.50;;;13.90;99.90;;;;;;6321540;22;20173;-96
2022/07/02 13:51:05;;;;;;;8.90;6.93;;;13.90;99.90;;;;;;6312970;22;20201;-96
2022/07/02 13:53:41;;;;;;;11.83;7.97;;;13.90;99.90;;;;;;6316974;22;20577;-96
2022/07/02 13:56:13;;;;;;;10.70;6.60;;;13.90;99.90;;;;;;6320363;22;20178;-96
2022/07/02 13:58:58;;;;;;;10.40;7.50;;;13.90;99.90;;;;;;6318526;22;20628;-96
2022/07/02 14:01:31;;;;;;;8.30;5.93;;;13.80;99.90;;;;;;6319620;22;20170;-96
2022/07/02 14:04:05;;;;;;;10.50;6.93;;;13.80;99.90;;;;;;6319204;22;20171;-96
2022/07/02 14:06:38;;;;;;;10.27;6.63;;;13.80;99.90;;;;;;6318025;22;20200;-96
2022/07/02 14:09:11;;;;;;;10.90;6.73;;;13.80;99.90;;;;;;6317962;22;20494;-96
2022/07/02 14:11:45;;;;;;;8.53;6.87;;;13.90;99.90;;;;;;6317628;22;20178;-96
2022/07/02 14:14:17;;;;;;;7.03;5.80;;;13.90;99.90;;;;;;6315018;22;20249;-96
2022/07/02 14:16:49;;;;;;;9.03;5.90;;;13.90;99.90;;;;;;6314469;22;20273;-96
2022/07/02 14:19:24;;;;;;;7.93;6.07;;;14.00;99.90;;;;;;6314769;22;20237;-96
2022/07/02 14:21:55;;;;;;;9.07;6.00;;;14.10;99.90;;;;;;6314108;22;20207;-96
2022/07/02 14:24:27;;;;;;;10.20;5.70;;;14.10;99.90;;;;;;6318981;22;20519;-96
2022/07/02 14:27:00;;;;;;;10.00;6.37;;;14.10;99.90;;;;;;6315479;22;20174;-96
2022/07/02 14:29:33;;;;;;;9.60;6.07;;;14.10;99.90;;;;;;6316145;22;20219;-96
2022/07/02 14:32:05;;;;;;;8.30;5.80;;;14.10;99.90;;;;;;6316965;22;20242;-96
2022/07/02 14:34:39;;;;;;;11.07;5.53;;;14.20;99.90;;;;;;6316762;22;20183;-96
2022/07/02 14:37:12;;;;;;;8.70;5.80;;;14.20;99.90;;;;;;6312856;22;20177;-96
2022/07/02 14:39:44;;;;;;;12.00;6.03;;;14.30;99.90;;;;;;6317309;22;20178;-96
2022/07/02 14:42:18;;;;;;;7.67;5.73;;;14.30;99.90;;;;;;6314659;22;20236;-96
2022/07/02 14:44:56;;;;;;;7.77;6.03;;;14.30;99.90;;;;;;6313292;22;20174;-96
2022/07/02 14:47:27;;;;;;;9.90;6.07;;;14.30;99.90;;;;;;6313227;22;20201;-96
2022/07/02 14:50:02;;;;;;;10.13;6.07;;;14.30;99.90;;;;;;6315480;22;20170;-96
2022/07/02 14:52:33;;;;;;;10.20;6.53;;;14.30;99.90;;;;;;6314996;22;20255;-96
2022/07/02 14:55:06;;;;;;;10.87;6.10;;;14.30;99.90;;;;;;6316613;22;20170;-96
2022/07/02 14:57:38;;;;;;;10.30;6.23;;;14.30;99.90;;;;;;6316672;22;20175;-96
2022/07/02 15:00:12;;;;;;;8.67;5.87;;;14.30;99.90;;;;;;6316986;22;20175;-96
2022/07/02 15:02:45;;;;;;;10.23;7.30;;;14.30;99.90;;;;;;6317444;22;20184;-96
2022/07/02 15:05:22;;;;;;;9.87;6.27;;;14.50;99.90;;;;;;6313263;22;20174;-96
2022/07/02 15:07:53;;;;;;;13.67;7.67;;;14.40;99.90;;;;;;6312759;22;20174;-96
2022/07/02 15:10:25;;;;;;;11.97;6.47;;;14.50;99.90;;;;;;6311953;22;20185;-96
2022/07/02 15:12:56;;;;;;;9.47;6.73;;;14.60;99.90;;;;;;6314048;22;20190;-96
2022/07/02 15:18:21;;;;;;;8.97;6.10;;;14.60;99.90;;;;;;6315896;22;20174;-94
2022/07/02 15:21:06;;;;;;;9.10;5.73;;;14.50;99.90;;;;;;6318884;22;20174;-96
2022/07/02 15:23:42;;;;;;;11.83;6.40;;;14.50;99.90;;;;;;6321897;22;20204;-96
2022/07/02 15:26:19;;;;;;;9.13;6.47;;;14.60;99.90;;;;;;6327955;22;20188;-96
2022/07/02 15:28:53;;;;;;;10.60;6.70;;;14.60;99.90;;;;;;6326050;22;20158;-96
2022/07/02 15:31:24;;;;;;;8.10;5.90;;;14.70;99.90;;;;;;6320264;22;20204;-96
2022/07/02 15:33:57;;;;;;;12.13;6.60;;;14.70;99.90;;;;;;6315822;22;20202;-96
2022/07/02 15:36:33;;;;;;;9.53;6.50;;;14.70;99.90;;;;;;6319660;22;20175;-96
2022/07/02 15:39:08;;;;;;;12.37;6.90;;;14.80;99.90;;;;;;6326816;22;20268;-96
2022/07/02 15:41:41;;;;;;;10.27;7.40;;;14.80;99.90;;;;;;6332916;22;20193;-96
2022/07/02 15:44:12;;;;;;;9.13;6.23;;;14.90;99.90;;;;;;6333777;22;20170;-96
2022/07/02 15:46:46;;;;;;;9.20;6.33;;;15.00;99.90;;;;;;6333880;22;20191;-96
2022/07/02 15:49:28;;;;;;;10.03;6.80;;;15.00;99.90;;;;;;6331453;22;20174;-96
2022/07/02 15:52:04;;;;;;;9.43;6.90;;;15.00;99.90;;;;;;6318303;22;20624;-96
2022/07/02 15:54:44;;;;;;;8.70;6.70;;;15.00;99.90;;;;;;6319352;22;20208;-96
2022/07/02 15:57:25;;;;;;;9.10;6.50;;;15.10;99.90;;;;;;6333295;22;20178;-96
2022/07/02 15:59:59;;;;;;;8.77;6.23;;;15.10;99.90;;;;;;6333476;22;20299;-96
2022/07/02 16:02:32;;;;;;;9.83;6.83;;;15.20;99.90;;;;;;6333741;22;20157;-96
2022/07/02 16:05:08;;;;;;;11.73;6.80;;;15.40;99.90;;;;;;6334009;22;20182;-96
2022/07/02 16:07:49;;;;;;;11.27;6.77;;;15.50;99.90;;;;;;6334208;22;20172;-96
2022/07/02 16:10:24;;;;;;;12.13;6.97;;;15.50;99.90;;;;;;6332283;22;20163;-96
2022/07/02 16:12:56;;;;;;;10.57;6.43;;;15.40;99.90;;;;;;6320240;22;20230;-96
2022/07/02 16:15:31;;;;;;;10.93;7.73;;;15.40;99.90;;;;;;6317301;22;20196;-96
2022/07/02 16:18:05;;;;;;;14.60;7.27;;;15.40;99.90;;;;;;6316531;22;20182;-96
2022/07/02 16:20:40;;;;;;;13.20;8.23;;;15.40;99.90;;;;;;6313705;22;20177;-96
2022/07/02 16:23:15;;;;;;;12.20;7.27;;;15.40;99.90;;;;;;6315038;22;20224;-96
2022/07/02 16:25:48;;;;;;;10.30;6.73;;;15.40;99.90;;;;;;6330925;22;20220;-96
2022/07/02 16:28:20;;;;;;;9.97;7.20;;;15.20;99.90;;;;;;6333535;22;20220;-96
2022/07/02 16:30:55;;;;;;;10.73;6.90;;;15.10;99.90;;;;;;6332685;22;20247;-96
2022/07/02 16:33:36;;;;;;;13.10;6.77;;;15.00;99.90;;;;;;6333303;22;20189;-96
2022/07/02 16:36:10;;;;;;;10.70;7.30;;;15.20;99.90;;;;;;6333213;22;20166;-96
2022/07/02 16:38:47;;;;;;;10.00;6.90;;;15.30;99.90;;;;;;6332997;22;20161;-96
2022/07/02 16:41:21;;;;;;;11.47;7.53;;;15.30;99.90;;;;;;6332902;22;20199;-96
2022/07/02 16:43:56;;;;;;;11.13;6.87;;;15.40;99.90;;;;;;6333333;22;20174;-95
2022/07/02 16:46:31;;;;;;;10.80;6.87;;;15.40;99.90;;;;;;6333487;22;20174;-95
2022/07/02 16:49:08;;;;;;;9.20;6.13;;;15.40;99.90;;;;;;6332439;22;20174;-96
2022/07/02 16:51:44;;;;;;;10.97;8.00;;;15.70;99.90;;;;;;6317412;22;20171;-96
2022/07/02 16:54:19;;;;;;;11.90;7.27;;;15.80;99.90;;;;;;6313751;22;20202;-96
2022/07/02 16:56:50;;;;;;;10.07;7.13;;;15.70;99.90;;;;;;6314095;22;20201;-96
2022/07/02 16:59:32;;;;;;;11.17;7.27;;;15.70;99.90;;;;;;6313581;22;20178;-96
2022/07/02 17:02:04;;;;;;;10.37;7.37;;;15.40;99.90;;;;;;6312812;22;20174;-96
2022/07/02 17:04:37;;;;;;;8.20;6.50;;;15.60;99.90;;;;;;6323866;22;20198;-96
2022/07/02 17:09:57;;;;;;;8.67;6.80;;;16.00;99.90;;;;;;6318974;22;20205;-96
2022/07/02 17:12:30;;;;;;;9.27;6.73;;;16.20;99.90;;;;;;6319181;22;20175;-96
2022/07/02 17:29:36;;;;;;;9.03;6.90;;;16.90;99.90;;;;;;6327052;22;20174;-96
2022/07/02 17:38:39;;;;;;;9.17;6.47;;;17.30;99.90;;;;;;6328265;22;20194;-96
2022/07/02 17:41:28;;;;;;;8.13;6.63;;;17.50;99.90;;;;;;6327710;22;20198;-96